Time;durP1;ratioP1;P1;durP2;ratioP2;P2;SDS_P1;SDS_P2;PMS_P1;PMS_P2;Temp;Humidity;BMP_temperature;BMP_pressure;BME280_temperature;BME280_humidity;BME280_pressure;Samples;Min_cycle;Max_cycle;Signal;HPM_P1;HPM_P2
2021/08/12 00:04:29;;;;;;;;;;;;;;;;;;10279657;28;19929;-65
2021/08/12 00:09:27;;;;;;;;;;;;;;;;;;10286118;28;19918;-66
2021/08/12 00:14:24;;;;;;;;;;;;;;;;;;10291573;28;19917;-65
2021/08/12 00:19:21;;;;;;;;;;;;;;;;;;10289190;28;19924;-66
2021/08/12 00:24:21;;;;;;;;;;;;;;;;;;10294025;28;19925;-65
2021/08/12 00:29:18;;;;;;;;;;;;;;;;;;10296456;28;19917;-64
2021/08/12 00:34:16;;;;;;;;;;;;;;;;;;10301966;28;19918;-68
2021/08/12 00:39:13;;;;;;;;;;;;;;;;;;10301512;28;19928;-64
2021/08/12 00:44:11;;;;;;;;;;;;;;;;;;10292431;28;19922;-63
2021/08/12 00:49:09;;;;;;;;;;;;;;;;;;10329585;28;20446;-69
2021/08/12 00:54:08;;;;;;;;;;;;;;;;;;10302233;28;19917;-64
2021/08/12 00:59:05;;;;;;;;;;;;;;;;;;10306845;28;20446;-64
2021/08/12 01:04:03;;;;;;;;;;;;;;;;;;10297691;28;20382;-62
2021/08/12 01:09:00;;;;;;;;;;;;;;;;;;10288413;28;20011;-63
2021/08/12 01:13:58;;;;;;;;;;;;;;;;;;10295900;28;19921;-63
2021/08/12 01:18:55;;;;;;;;;;;;;;;;;;10292105;28;19997;-62
2021/08/12 01:23:53;;;;;;;;;;;;;;;;;;10297022;28;19925;-68
2021/08/12 01:28:51;;;;;;;;;;;;;;;;;;10286088;28;19929;-65
2021/08/12 01:33:48;;;;;;;;;;;;;;;;;;10296247;28;19917;-64
2021/08/12 01:38:46;;;;;;;;;;;;;;;;;;10294700;28;19925;-65
2021/08/12 01:43:43;;;;;;;;;;;;;;;;;;10295218;28;20367;-64
2021/08/12 01:48:41;;;;;;;;;;;;;;;;;;10296984;28;20034;-65
2021/08/12 01:53:38;;;;;;;;;;;;;;;;;;10286213;28;20107;-64
2021/08/12 01:58:36;;;;;;;;;;;;;;;;;;10292609;28;20979;-66
2021/08/12 02:03:34;;;;;;;;;;;;;;;;;;10296161;28;20007;-64
2021/08/12 02:08:31;;;;;;;;;;;;;;;;;;10297939;28;19917;-64
2021/08/12 02:13:30;;;;;;;;;;;;;;;;;;10285632;28;19921;-63
2021/08/12 02:18:27;;;;;;;;;;;;;;;;;;10296306;28;20019;-62
2021/08/12 02:23:24;;;;;;;;;;;;;;;;;;10328400;28;20397;-64
2021/08/12 02:28:21;;;;;;;;;;;;;;;;;;10285901;28;19924;-63
2021/08/12 02:33:20;;;;;;;;;;;;;;;;;;10294665;28;20275;-65
2021/08/12 02:38:17;;;;;;;;;;;;;;;;;;10288539;28;19979;-63
2021/08/12 02:43:17;;;;;;;;;;;;;;;;;;10292247;28;19928;-66
2021/08/12 02:48:14;;;;;;;;;;;;;;;;;;10294441;28;20013;-63
2021/08/12 02:53:11;;;;;;;;;;;;;;;;;;10298310;28;19917;-66
2021/08/12 02:58:09;;;;;;;;;;;;;;;;;;10295331;28;19928;-66
2021/08/12 03:03:06;;;;;;;;;;;;;;;;;;10320720;28;19928;-64
2021/08/12 03:08:04;;;;;;;;;;;;;;;;;;10293049;28;20391;-63
2021/08/12 03:13:01;;;;;;;;;;;;;;;;;;10290582;28;20024;-65
2021/08/12 03:17:59;;;;;;;;;;;;;;;;;;10296820;28;19917;-63
2021/08/12 03:22:57;;;;;;;;;;;;;;;;;;10290314;28;20320;-63
2021/08/12 03:27:54;;;;;;;;;;;;;;;;;;10289453;28;19917;-62
2021/08/12 03:32:52;;;;;;;;;;;;;;;;;;10279130;28;20408;-66
2021/08/12 03:37:49;;;;;;;;;;;;;;;;;;10269395;28;20013;-64
2021/08/12 03:42:47;;;;;;;;;;;;;;;;;;10286773;28;20409;-68
2021/08/12 03:47:45;;;;;;;;;;;;;;;;;;10269995;28;19964;-69
2021/08/12 03:52:42;;;;;;;;;;;;;;;;;;10316680;28;19917;-65
2021/08/12 03:57:39;;;;;;;;;;;;;;;;;;10293100;28;19936;-64
2021/08/12 04:02:37;;;;;;;;;;;;;;;;;;10284601;28;19948;-65
2021/08/12 04:07:34;;;;;;;;;;;;;;;;;;10288815;28;20287;-66
2021/08/12 04:12:31;;;;;;;;;;;;;;;;;;10287169;28;19924;-65
2021/08/12 04:17:29;;;;;;;;;;;;;;;;;;10283339;28;20209;-68
2021/08/12 04:22:26;;;;;;;;;;;;;;;;;;10288597;28;19931;-68
2021/08/12 04:27:23;;;;;;;;;;;;;;;;;;10288336;28;20032;-67
2021/08/12 04:32:20;;;;;;;;;;;;;;;;;;10278281;28;19925;-66
2021/08/12 04:37:18;;;;;;;;;;;;;;;;;;10291397;28;19944;-66
2021/08/12 04:42:15;;;;;;;;;;;;;;;;;;10290117;28;20390;-66
2021/08/12 04:47:12;;;;;;;;;;;;;;;;;;10283616;28;19924;-66
2021/08/12 04:52:10;;;;;;;;;;;;;;;;;;10317384;28;20612;-67
2021/08/12 04:57:08;;;;;;;;;;;;;;;;;;10289691;28;19943;-65
2021/08/12 05:02:05;;;;;;;;;;;;;;;;;;10293802;28;20210;-66
2021/08/12 05:07:02;;;;;;;;;;;;;;;;;;10279427;28;19917;-65
2021/08/12 05:12:00;;;;;;;;;;;;;;;;;;10284828;28;19917;-67
2021/08/12 05:16:58;;;;;;;;;;;;;;;;;;10284093;28;19917;-63
2021/08/12 05:21:57;;;;;;;;;;;;;;;;;;10277785;28;19948;-66
2021/08/12 05:26:55;;;;;;;;;;;;;;;;;;10283727;28;19951;-65
2021/08/12 05:31:52;;;;;;;;;;;;;;;;;;10282472;28;19917;-66
2021/08/12 05:36:50;;;;;;;;;;;;;;;;;;10297518;28;20031;-66
2021/08/12 05:41:47;;;;;;;;;;;;;;;;;;10278891;28;19917;-67
2021/08/12 05:46:44;;;;;;;;;;;;;;;;;;10288339;28;19928;-67
2021/08/12 05:51:41;;;;;;;;;;;;;;;;;;10296154;28;19918;-67
2021/08/12 05:56:39;;;;;;;;;;;;;;;;;;10281264;28;19922;-65
2021/08/12 06:01:36;;;;;;;;;;;;;;;;;;10288859;28;20362;-66
2021/08/12 06:06:33;;;;;;;;;;;;;;;;;;10278989;28;20016;-65
2021/08/12 06:11:31;;;;;;;;;;;;;;;;;;10304734;28;20307;-65
2021/08/12 06:16:28;;;;;;;;;;;;;;;;;;10285004;28;20163;-66
2021/08/12 06:21:25;;;;;;;;;;;;;;;;;;10278822;28;19944;-63
2021/08/12 06:26:23;;;;;;;;;;;;;;;;;;10282905;28;20383;-66
2021/08/12 06:31:21;;;;;;;;;;;;;;;;;;10282180;28;19928;-65
2021/08/12 06:36:18;;;;;;;;;;;;;;;;;;10284500;28;19960;-64
2021/08/12 06:41:24;;;;;;;;;;;;;;;;;;10409697;27;20286;-59
2021/08/12 06:46:27;;;;;;;;;;;;;;;;;;10352649;28;19929;-60
2021/08/12 06:51:25;;;;;;;;;;;;;;;;;;10247508;28;19975;-56
2021/08/12 06:56:23;;;;;;;;;;;;;;;;;;10257401;28;19920;-55
2021/08/12 07:01:20;;;;;;;;;;;;;;;;;;10254201;28;20421;-54
2021/08/12 07:06:18;;;;;;;;;;;;;;;;;;10260023;28;19996;-55
2021/08/12 07:11:16;;;;;;;;;;;;;;;;;;10266225;28;20368;-53
2021/08/12 07:16:14;;;;;;;;;;;;;;;;;;10269414;28;20486;-55
2021/08/12 07:21:11;;;;;;;;;;;;;;;;;;10220796;28;20345;-54
2021/08/12 07:26:12;;;;;;;;;;;;;;;;;;10243190;28;19921;-56
2021/08/12 07:31:09;;;;;;;;;;;;;;;;;;10250421;28;19951;-55
2021/08/12 07:36:06;;;;;;;;;;;;;;;;;;10257662;28;19932;-56
2021/08/12 07:41:04;;;;;;;;;;;;;;;;;;10244916;28;19983;-56
2021/08/12 07:46:02;;;;;;;;;;;;;;;;;;10257020;28;20309;-56
2021/08/12 07:50:59;;;;;;;;;;;;;;;;;;10247580;28;19927;-52
2021/08/12 07:55:57;;;;;;;;;;;;;;;;;;10200590;28;19928;-57
2021/08/12 08:00:54;;;;;;;;;;;;;;;;;;10236441;28;19932;-57
2021/08/12 08:05:51;;;;;;;;;;;;;;;;;;10246123;28;19921;-60
2021/08/12 08:10:48;;;;;;;;;;;;;;;;;;10261070;28;20021;-60
2021/08/12 08:15:47;;;;;;;;;;;;;;;;;;10255647;28;20157;-60
2021/08/12 08:20:44;;;;;;;;;;;;;;;;;;10251186;28;20448;-54
2021/08/12 08:25:41;;;;;;;;;;;;;;;;;;10234778;28;20304;-56
2021/08/12 08:30:39;;;;;;;;;;;;;;;;;;10244615;28;19921;-56
2021/08/12 08:35:38;;;;;;;;;;;;;;;;;;10246921;28;20000;-55
2021/08/12 08:40:35;;;;;;;;;;;;;;;;;;10206879;28;19949;-59
2021/08/12 08:45:32;;;;;;;;;;;;;;;;;;10231456;28;20260;-59
2021/08/12 08:50:32;;;;;;;;;;;;;;;;;;10222282;28;19983;-57
2021/08/12 08:55:30;;;;;;;;;;;;;;;;;;10237115;28;20055;-56
2021/08/12 09:00:28;;;;;;;;;;;;;;;;;;10240668;28;19929;-55
2021/08/12 09:05:26;;;;;;;;;;;;;;;;;;10243577;28;19917;-57
2021/08/12 09:10:23;;;;;;;;;;;;;;;;;;10246930;28;19944;-57
2021/08/12 09:15:21;;;;;;;;;;;;;;;;;;10227549;28;20394;-61
2021/08/12 09:20:18;;;;;;;;;;;;;;;;;;10243527;28;19929;-59
2021/08/12 09:25:16;;;;;;;;;;;;;;;;;;10224258;28;20405;-57
2021/08/12 09:30:13;;;;;;;;;;;;;;;;;;10232850;28;19931;-61
2021/08/12 09:35:10;;;;;;;;;;;;;;;;;;10237092;28;20554;-58
2021/08/12 09:40:08;;;;;;;;;;;;;;;;;;10226744;28;19990;-57
2021/08/12 09:45:07;;;;;;;;;;;;;;;;;;10247654;28;19924;-57
2021/08/12 09:50:06;;;;;;;;;;;;;;;;;;10222555;28;19948;-56
2021/08/12 09:55:03;;;;;;;;;;;;;;;;;;10230853;28;19917;-56
2021/08/12 10:00:01;;;;;;;;;;;;;;;;;;10236600;28;19968;-61
2021/08/12 10:04:58;;;;;;;;;;;;;;;;;;10226568;28;20395;-62
2021/08/12 10:09:55;;;;;;;;;;;;;;;;;;10248776;28;20004;-59
2021/08/12 10:14:52;;;;;;;;;;;;;;;;;;10227385;28;19925;-59
2021/08/12 10:19:50;;;;;;;;;;;;;;;;;;10223302;28;19929;-58
2021/08/12 10:24:47;;;;;;;;;;;;;;;;;;10238243;28;19917;-57
2021/08/12 10:29:45;;;;;;;;;;;;;;;;;;10223282;28;19925;-56
2021/08/12 10:34:42;;;;;;;;;;;;;;;;;;10213899;28;19984;-57
2021/08/12 10:39:39;;;;;;;;;;;;;;;;;;10250315;28;19929;-57
2021/08/12 10:44:37;;;;;;;;;;;;;;;;;;10247158;28;19925;-57
2021/08/12 10:49:34;;;;;;;;;;;;;;;;;;10252236;28;20300;-58
2021/08/12 10:54:32;;;;;;;;;;;;;;;;;;10243920;28;19924;-59
2021/08/12 10:59:29;;;;;;;;;;;;;;;;;;10253011;28;19960;-56
2021/08/12 11:04:27;;;;;;;;;;;;;;;;;;10223959;28;19929;-57
2021/08/12 11:09:25;;;;;;;;;;;;;;;;;;10256123;28;19926;-56
2021/08/12 11:14:23;;;;;;;;;;;;;;;;;;10248838;28;20375;-57
2021/08/12 11:19:20;;;;;;;;;;;;;;;;;;10268168;28;20375;-63
2021/08/12 11:24:21;;;;;;;;;;;;;;;;;;10240939;28;20023;-56
2021/08/12 11:29:18;;;;;;;;;;;;;;;;;;10268428;28;20004;-56
2021/08/12 11:34:17;;;;;;;;;;;;;;;;;;10240887;28;20016;-60
2021/08/12 11:39:14;;;;;;;;;;;;;;;;;;10256910;28;20389;-62
2021/08/12 11:44:11;;;;;;;;;;;;;;;;;;10280226;28;19925;-57
2021/08/12 11:49:10;;;;;;;;;;;;;;;;;;10252055;28;20032;-58
2021/08/12 11:54:07;;;;;;;;;;;;;;;;;;10258164;28;20004;-58
2021/08/12 11:59:05;;;;;;;;;;;;;;;;;;10250407;28;19928;-57
2021/08/12 12:04:02;;;;;;;;;;;;;;;;;;10260083;28;20432;-58
2021/08/12 12:09:00;;;;;;;;;;;;;;;;;;10262491;28;19928;-55
2021/08/12 12:13:57;;;;;;;;;;;;;;;;;;10269172;28;19922;-57
2021/08/12 12:18:57;;;;;;;;;;;;;;;;;;10255405;28;20072;-56
2021/08/12 12:23:54;;;;;;;;;;;;;;;;;;10249107;28;19967;-57
2021/08/12 12:28:51;;;;;;;;;;;;;;;;;;10254892;28;19924;-58
2021/08/12 12:33:49;;;;;;;;;;;;;;;;;;10241433;28;19986;-56
2021/08/12 12:38:46;;;;;;;;;;;;;;;;;;10232444;28;20239;-57
2021/08/12 12:43:44;;;;;;;;;;;;;;;;;;10257557;28;19924;-58
2021/08/12 12:48:45;;;;;;;;;;;;;;;;;;10265287;28;20022;-57
2021/08/12 12:53:42;;;;;;;;;;;;;;;;;;10265756;28;20006;-57
2021/08/12 12:58:40;;;;;;;;;;;;;;;;;;10273441;28;20030;-58
2021/08/12 13:03:37;;;;;;;;;;;;;;;;;;10262336;28;19968;-58
2021/08/12 13:08:34;;;;;;;;;;;;;;;;;;10267076;28;20237;-56
2021/08/12 13:13:32;;;;;;;;;;;;;;;;;;10257261;28;19923;-59
2021/08/12 13:18:29;;;;;;;;;;;;;;;;;;10262231;28;19917;-59
2021/08/12 13:23:26;;;;;;;;;;;;;;;;;;10271187;28;19924;-58
2021/08/12 13:28:23;;;;;;;;;;;;;;;;;;10263264;28;19928;-59
2021/08/12 13:33:21;;;;;;;;;;;;;;;;;;10263993;28;19957;-59
2021/08/12 13:38:18;;;;;;;;;;;;;;;;;;10268028;28;19933;-59
2021/08/12 13:43:15;;;;;;;;;;;;;;;;;;10266471;28;19917;-58
2021/08/12 13:48:13;;;;;;;;;;;;;;;;;;10276699;28;19917;-56
2021/08/12 13:53:10;;;;;;;;;;;;;;;;;;10277813;28;19960;-56
2021/08/12 13:58:07;;;;;;;;;;;;;;;;;;10271977;28;19921;-57
2021/08/12 14:03:05;;;;;;;;;;;;;;;;;;10262270;28;19921;-57
2021/08/12 14:08:02;;;;;;;;;;;;;;;;;;10272985;28;19995;-58
2021/08/12 14:13:00;;;;;;;;;;;;;;;;;;10271530;28;19972;-56
2021/08/12 14:17:57;;;;;;;;;;;;;;;;;;10273825;28;19961;-57
2021/08/12 14:22:54;;;;;;;;;;;;;;;;;;10276446;28;19928;-56
2021/08/12 14:27:51;;;;;;;;;;;;;;;;;;10272787;28;20503;-57
2021/08/12 14:32:49;;;;;;;;;;;;;;;;;;10264161;28;20301;-58
2021/08/12 14:37:46;;;;;;;;;;;;;;;;;;10266723;28;19925;-58
2021/08/12 14:42:43;;;;;;;;;;;;;;;;;;10267009;28;19936;-59
2021/08/12 14:47:41;;;;;;;;;;;;;;;;;;10274606;28;19920;-58
2021/08/12 14:52:39;;;;;;;;;;;;;;;;;;10270157;28;19952;-58
2021/08/12 14:57:36;;;;;;;;;;;;;;;;;;10267689;28;19921;-58
2021/08/12 15:02:34;;;;;;;;;;;;;;;;;;10264096;28;19921;-57
2021/08/12 15:07:34;;;;;;;;;;;;;;;;;;10274336;28;19917;-57
2021/08/12 15:12:31;;;;;;;;;;;;;;;;;;10271699;28;20603;-55
2021/08/12 15:17:29;;;;;;;;;;;;;;;;;;10271908;28;19929;-58
2021/08/12 15:22:26;;;;;;;;;;;;;;;;;;10270763;28;19998;-58
2021/08/12 15:27:24;;;;;;;;;;;;;;;;;;10271087;28;19971;-58
2021/08/12 15:32:21;;;;;;;;;;;;;;;;;;10263860;28;19927;-57
2021/08/12 15:37:20;;;;;;;;;;;;;;;;;;10276211;28;19968;-57
2021/08/12 15:42:17;;;;;;;;;;;;;;;;;;10278370;28;20337;-57
2021/08/12 15:47:14;;;;;;;;;;;;;;;;;;10276430;28;19925;-57
2021/08/12 15:52:12;;;;;;;;;;;;;;;;;;10280227;28;19917;-58
2021/08/12 15:57:10;;;;;;;;;;;;;;;;;;10272956;28;19952;-57
2021/08/12 16:02:07;;;;;;;;;;;;;;;;;;10273567;28;19917;-58
2021/08/12 16:07:05;;;;;;;;;;;;;;;;;;10278157;28;19921;-57
2021/08/12 16:12:02;;;;;;;;;;;;;;;;;;10307460;28;19921;-58
2021/08/12 16:17:00;;;;;;;;;;;;;;;;;;10268694;28;19974;-57
2021/08/12 16:21:57;;;;;;;;;;;;;;;;;;10285326;28;19984;-57
2021/08/12 16:26:55;;;;;;;;;;;;;;;;;;10267000;28;20016;-60
2021/08/12 16:31:52;;;;;;;;;;;;;;;;;;10268377;28;19943;-57
2021/08/12 16:36:49;;;;;;;;;;;;;;;;;;10268043;28;20229;-57
2021/08/12 16:41:47;;;;;;;;;;;;;;;;;;10277861;28;19917;-56
2021/08/12 16:46:44;;;;;;;;;;;;;;;;;;10276713;28;19952;-57
2021/08/12 16:51:41;;;;;;;;;;;;;;;;;;10269964;28;19928;-57
2021/08/12 16:56:39;;;;;;;;;;;;;;;;;;10274230;28;20355;-57
2021/08/12 17:01:37;;;;;;;;;;;;;;;;;;10259838;28;19936;-58
2021/08/12 17:06:35;;;;;;;;;;;;;;;;;;10259984;28;19921;-58
2021/08/12 17:11:32;;;;;;;;;;;;;;;;;;10271729;28;19924;-58
2021/08/12 17:16:29;;;;;;;;;;;;;;;;;;10272589;28;20334;-58
2021/08/12 17:21:26;;;;;;;;;;;;;;;;;;10275286;28;20366;-58
2021/08/12 17:26:24;;;;;;;;;;;;;;;;;;10256751;28;19921;-59
2021/08/12 17:31:21;;;;;;;;;;;;;;;;;;10266408;28;20373;-59
2021/08/12 17:36:19;;;;;;;;;;;;;;;;;;10284257;28;19917;-58
2021/08/12 17:41:16;;;;;;;;;;;;;;;;;;10269691;28;20365;-58
2021/08/12 17:46:13;;;;;;;;;;;;;;;;;;10276233;28;20291;-57
2021/08/12 17:51:11;;;;;;;;;;;;;;;;;;10258527;28;19939;-59
2021/08/12 17:56:08;;;;;;;;;;;;;;;;;;10272906;28;20008;-64
2021/08/12 18:01:05;;;;;;;;;;;;;;;;;;10259522;28;20347;-62
2021/08/12 18:06:03;;;;;;;;;;;;;;;;;;10274449;28;20289;-59
2021/08/12 18:11:00;;;;;;;;;;;;;;;;;;10275167;28;20355;-59
2021/08/12 18:15:57;;;;;;;;;;;;;;;;;;10273949;28;19923;-63
2021/08/12 18:20:55;;;;;;;;;;;;;;;;;;10267875;28;19925;-61
2021/08/12 18:25:53;;;;;;;;;;;;;;;;;;10229064;28;19940;-56
2021/08/12 18:30:50;;;;;;;;;;;;;;;;;;10260989;28;19992;-57
2021/08/12 18:35:47;;;;;;;;;;;;;;;;;;10255841;28;19975;-57
2021/08/12 18:40:44;;;;;;;;;;;;;;;;;;10267138;28;19933;-56
2021/08/12 18:45:42;;;;;;;;;;;;;;;;;;10247651;28;20246;-58
2021/08/12 18:50:39;;;;;;;;;;;;;;;;;;10249914;28;19972;-58
2021/08/12 18:55:37;;;;;;;;;;;;;;;;;;10257028;28;19925;-56
2021/08/12 19:00:34;;;;;;;;;;;;;;;;;;10253953;28;19921;-56
2021/08/12 19:05:32;;;;;;;;;;;;;;;;;;10256249;28;20377;-59
2021/08/12 19:10:29;;;;;;;;;;;;;;;;;;10249942;28;19932;-57
2021/08/12 19:15:27;;;;;;;;;;;;;;;;;;10230400;28;20281;-58
2021/08/12 19:20:24;;;;;;;;;;;;;;;;;;10227596;28;19961;-56
2021/08/12 19:25:21;;;;;;;;;;;;;;;;;;10226006;28;20419;-58
2021/08/12 19:30:18;;;;;;;;;;;;;;;;;;10240107;28;19921;-60
2021/08/12 19:35:16;;;;;;;;;;;;;;;;;;10227353;28;19925;-58
2021/08/12 19:40:13;;;;;;;;;;;;;;;;;;10241385;28;20513;-56
2021/08/12 19:45:10;;;;;;;;;;;;;;;;;;10244159;28;20002;-57
2021/08/12 19:50:08;;;;;;;;;;;;;;;;;;10242253;28;19924;-58
2021/08/12 19:55:05;;;;;;;;;;;;;;;;;;10256189;28;19922;-58
2021/08/12 20:00:02;;;;;;;;;;;;;;;;;;10254705;28;20250;-58
2021/08/12 20:05:09;;;;;;;;;;;;;;;;;;10259434;28;19918;-58
2021/08/12 20:10:06;;;;;;;;;;;;;;;;;;10250499;28;19917;-57
2021/08/12 20:15:03;;;;;;;;;;;;;;;;;;10268187;28;19988;-58
2021/08/12 20:20:01;;;;;;;;;;;;;;;;;;10233797;28;19921;-63
2021/08/12 20:24:58;;;;;;;;;;;;;;;;;;10240726;28;20409;-56
2021/08/12 20:29:55;;;;;;;;;;;;;;;;;;10234965;28;20367;-62
2021/08/12 20:34:52;;;;;;;;;;;;;;;;;;10233757;28;19917;-56
2021/08/12 20:39:50;;;;;;;;;;;;;;;;;;10257379;28;19933;-61
2021/08/12 20:44:47;;;;;;;;;;;;;;;;;;10247129;28;20293;-56
2021/08/12 20:49:44;;;;;;;;;;;;;;;;;;10250073;28;19999;-60
2021/08/12 20:54:42;;;;;;;;;;;;;;;;;;10258078;28;19959;-62
2021/08/12 20:59:39;;;;;;;;;;;;;;;;;;10247645;28;19917;-57
2021/08/12 21:04:37;;;;;;;;;;;;;;;;;;10200229;28;19913;-58
2021/08/12 21:09:34;;;;;;;;;;;;;;;;;;10242951;28;19956;-61
2021/08/12 21:14:32;;;;;;;;;;;;;;;;;;10243097;28;19955;-61
2021/08/12 21:19:29;;;;;;;;;;;;;;;;;;10214848;28;20011;-59
2021/08/12 21:24:27;;;;;;;;;;;;;;;;;;10244871;28;19921;-61
2021/08/12 21:29:24;;;;;;;;;;;;;;;;;;10225049;28;19944;-62
2021/08/12 21:34:22;;;;;;;;;;;;;;;;;;10236744;28;19917;-57
2021/08/12 21:39:19;;;;;;;;;;;;;;;;;;10242938;28;20230;-60
2021/08/12 21:44:16;;;;;;;;;;;;;;;;;;10242257;28;20477;-57
2021/08/12 21:49:13;;;;;;;;;;;;;;;;;;10231208;28;19925;-62
2021/08/12 21:54:11;;;;;;;;;;;;;;;;;;10232174;28;20015;-59
2021/08/12 21:59:08;;;;;;;;;;;;;;;;;;10228925;28;19928;-62
2021/08/12 22:04:05;;;;;;;;;;;;;;;;;;10249310;28;21091;-54
2021/08/12 22:09:03;;;;;;;;;;;;;;;;;;10247288;28;19921;-60
2021/08/12 22:14:01;;;;;;;;;;;;;;;;;;10241418;28;20870;-61
2021/08/12 22:18:58;;;;;;;;;;;;;;;;;;10245700;28;19925;-56
2021/08/12 22:23:55;;;;;;;;;;;;;;;;;;10235588;28;19931;-57
2021/08/12 22:28:53;;;;;;;;;;;;;;;;;;10249342;28;20164;-60
2021/08/12 22:33:50;;;;;;;;;;;;;;;;;;10242821;28;19928;-62
2021/08/12 22:38:47;;;;;;;;;;;;;;;;;;10239893;28;20014;-59
2021/08/12 22:43:45;;;;;;;;;;;;;;;;;;10259589;28;19929;-59
2021/08/12 22:48:43;;;;;;;;;;;;;;;;;;10236984;28;19968;-58
2021/08/12 22:53:40;;;;;;;;;;;;;;;;;;10243123;28;19917;-59
2021/08/12 22:58:38;;;;;;;;;;;;;;;;;;10255002;28;19924;-60
2021/08/12 23:03:35;;;;;;;;;;;;;;;;;;10239641;28;20238;-58
2021/08/12 23:08:32;;;;;;;;;;;;;;;;;;10240795;28;19921;-62
2021/08/12 23:13:29;;;;;;;;;;;;;;;;;;10220330;28;19976;-59
2021/08/12 23:18:27;;;;;;;;;;;;;;;;;;10226054;28;19991;-55
2021/08/12 23:23:24;;;;;;;;;;;;;;;;;;10235939;28;19917;-57
2021/08/12 23:28:22;;;;;;;;;;;;;;;;;;10248524;28;19936;-58
2021/08/12 23:33:19;;;;;;;;;;;;;;;;;;10246218;28;19925;-56
2021/08/12 23:38:16;;;;;;;;;;;;;;;;;;10259129;28;20468;-57
2021/08/12 23:43:15;;;;;;;;;;;;;;;;;;10257232;28;19979;-56
2021/08/12 23:48:13;;;;;;;;;;;;;;;;;;10232812;28;21036;-57
2021/08/12 23:53:10;;;;;;;;;;;;;;;;;;10253583;28;19917;-53
2021/08/12 23:58:07;;;;;;;;;;;;;;;;;;10242199;28;19957;-55
